sensor_id;sensor_type;location;lat;lon;timestamp;P1;durP1;ratioP1;P2;durP2;ratioP2
25950;SDS011;13748;52.240;6.002;2023-02-28T00:01:09;11.40;;;6.83;;
25950;SDS011;13748;52.240;6.002;2023-02-28T00:03:36;10.53;;;6.97;;
25950;SDS011;13748;52.240;6.002;2023-02-28T00:06:03;12.63;;;7.30;;
25950;SDS011;13748;52.240;6.002;2023-02-28T00:08:31;11.00;;;7.30;;
25950;SDS011;13748;52.240;6.002;2023-02-28T00:11:02;12.20;;;7.10;;
25950;SDS011;13748;52.240;6.002;2023-02-28T00:13:29;11.07;;;6.90;;
25950;SDS011;13748;52.240;6.002;2023-02-28T00:16:01;10.77;;;7.17;;
25950;SDS011;13748;52.240;6.002;2023-02-28T00:18:29;13.17;;;7.27;;
25950;SDS011;13748;52.240;6.002;2023-02-28T00:20:57;11.37;;;6.53;;
25950;SDS011;13748;52.240;6.002;2023-02-28T00:23:24;9.10;;;6.90;;
25950;SDS011;13748;52.240;6.002;2023-02-28T00:25:51;11.67;;;6.27;;
25950;SDS011;13748;52.240;6.002;2023-02-28T00:28:18;10.30;;;6.63;;
25950;SDS011;13748;52.240;6.002;2023-02-28T00:30:45;12.57;;;6.07;;
25950;SDS011;13748;52.240;6.002;2023-02-28T00:33:12;10.83;;;6.63;;
25950;SDS011;13748;52.240;6.002;2023-02-28T00:35:39;11.13;;;6.50;;
25950;SDS011;13748;52.240;6.002;2023-02-28T00:38:06;10.93;;;7.20;;
25950;SDS011;13748;52.240;6.002;2023-02-28T00:40:32;9.03;;;6.33;;
25950;SDS011;13748;52.240;6.002;2023-02-28T00:42:59;10.60;;;6.80;;
25950;SDS011;13748;52.240;6.002;2023-02-28T00:45:26;11.03;;;6.87;;
25950;SDS011;13748;52.240;6.002;2023-02-28T00:47:52;9.37;;;6.67;;
25950;SDS011;13748;52.240;6.002;2023-02-28T00:50:20;13.53;;;6.30;;
25950;SDS011;13748;52.240;6.002;2023-02-28T00:52:47;11.27;;;6.63;;
25950;SDS011;13748;52.240;6.002;2023-02-28T00:55:14;11.53;;;6.87;;
25950;SDS011;13748;52.240;6.002;2023-02-28T00:57:41;10.13;;;5.70;;
25950;SDS011;13748;52.240;6.002;2023-02-28T01:00:08;12.23;;;6.60;;
25950;SDS011;13748;52.240;6.002;2023-02-28T01:02:35;11.90;;;6.13;;
25950;SDS011;13748;52.240;6.002;2023-02-28T01:05:02;11.37;;;6.17;;
25950;SDS011;13748;52.240;6.002;2023-02-28T01:07:29;10.57;;;6.50;;
25950;SDS011;13748;52.240;6.002;2023-02-28T01:09:55;10.17;;;6.23;;
25950;SDS011;13748;52.240;6.002;2023-02-28T01:12:22;7.97;;;5.70;;
25950;SDS011;13748;52.240;6.002;2023-02-28T01:14:49;12.27;;;6.13;;
25950;SDS011;13748;52.240;6.002;2023-02-28T01:17:16;8.13;;;5.67;;
25950;SDS011;13748;52.240;6.002;2023-02-28T01:19:42;9.80;;;6.47;;
25950;SDS011;13748;52.240;6.002;2023-02-28T01:22:09;11.20;;;6.17;;
25950;SDS011;13748;52.240;6.002;2023-02-28T01:24:37;10.67;;;5.80;;
25950;SDS011;13748;52.240;6.002;2023-02-28T01:27:03;9.70;;;5.50;;
25950;SDS011;13748;52.240;6.002;2023-02-28T01:29:30;7.83;;;5.67;;
25950;SDS011;13748;52.240;6.002;2023-02-28T01:31:57;11.30;;;6.57;;
25950;SDS011;13748;52.240;6.002;2023-02-28T01:34:25;7.93;;;6.00;;
25950;SDS011;13748;52.240;6.002;2023-02-28T01:36:52;8.23;;;5.63;;
25950;SDS011;13748;52.240;6.002;2023-02-28T01:39:19;9.60;;;6.00;;
25950;SDS011;13748;52.240;6.002;2023-02-28T01:41:45;14.33;;;6.47;;
25950;SDS011;13748;52.240;6.002;2023-02-28T01:47:17;9.83;;;5.60;;
25950;SDS011;13748;52.240;6.002;2023-02-28T01:49:43;9.17;;;5.73;;
25950;SDS011;13748;52.240;6.002;2023-02-28T01:52:11;8.37;;;5.47;;
25950;SDS011;13748;52.240;6.002;2023-02-28T01:54:48;9.23;;;5.93;;
25950;SDS011;13748;52.240;6.002;2023-02-28T01:57:19;7.20;;;5.37;;
25950;SDS011;13748;52.240;6.002;2023-02-28T01:59:55;12.90;;;6.10;;
25950;SDS011;13748;52.240;6.002;2023-02-28T02:02:26;9.83;;;6.17;;
25950;SDS011;13748;52.240;6.002;2023-02-28T02:04:56;7.30;;;5.63;;
25950;SDS011;13748;52.240;6.002;2023-02-28T02:07:33;10.77;;;6.37;;
25950;SDS011;13748;52.240;6.002;2023-02-28T02:10:19;9.57;;;5.73;;
25950;SDS011;13748;52.240;6.002;2023-02-28T02:32:42;6.87;;;4.90;;
25950;SDS011;13748;52.240;6.002;2023-02-28T02:40:42;8.87;;;5.37;;
25950;SDS011;13748;52.240;6.002;2023-02-28T02:43:33;8.57;;;5.40;;
25950;SDS011;13748;52.240;6.002;2023-02-28T02:46:04;8.37;;;5.03;;
25950;SDS011;13748;52.240;6.002;2023-02-28T02:48:36;9.77;;;5.57;;
25950;SDS011;13748;52.240;6.002;2023-02-28T02:51:07;6.83;;;5.40;;
25950;SDS011;13748;52.240;6.002;2023-02-28T02:53:41;12.33;;;5.30;;
25950;SDS011;13748;52.240;6.002;2023-02-28T02:56:11;9.10;;;5.40;;
25950;SDS011;13748;52.240;6.002;2023-02-28T02:58:40;8.80;;;5.83;;
25950;SDS011;13748;52.240;6.002;2023-02-28T03:01:14;11.27;;;5.93;;
25950;SDS011;13748;52.240;6.002;2023-02-28T03:03:55;11.30;;;5.60;;
25950;SDS011;13748;52.240;6.002;2023-02-28T03:06:27;8.87;;;6.10;;
25950;SDS011;13748;52.240;6.002;2023-02-28T03:08:54;9.97;;;5.80;;
25950;SDS011;13748;52.240;6.002;2023-02-28T03:11:20;8.77;;;5.53;;
25950;SDS011;13748;52.240;6.002;2023-02-28T03:16:59;12.67;;;6.90;;
25950;SDS011;13748;52.240;6.002;2023-02-28T03:25:28;10.23;;;6.13;;
25950;SDS011;13748;52.240;6.002;2023-02-28T03:28:30;11.23;;;6.60;;
25950;SDS011;13748;52.240;6.002;2023-02-28T03:31:07;8.70;;;5.97;;
25950;SDS011;13748;52.240;6.002;2023-02-28T03:33:44;8.73;;;6.10;;
25950;SDS011;13748;52.240;6.002;2023-02-28T03:36:28;12.37;;;6.00;;
25950;SDS011;13748;52.240;6.002;2023-02-28T03:39:00;9.67;;;6.40;;
25950;SDS011;13748;52.240;6.002;2023-02-28T03:41:53;10.20;;;6.20;;
25950;SDS011;13748;52.240;6.002;2023-02-28T03:44:40;10.17;;;6.33;;
25950;SDS011;13748;52.240;6.002;2023-02-28T03:47:11;11.17;;;5.63;;
25950;SDS011;13748;52.240;6.002;2023-02-28T03:49:44;10.20;;;5.63;;
25950;SDS011;13748;52.240;6.002;2023-02-28T03:52:15;10.47;;;5.60;;
25950;SDS011;13748;52.240;6.002;2023-02-28T03:54:47;6.87;;;5.33;;
25950;SDS011;13748;52.240;6.002;2023-02-28T04:02:43;10.50;;;5.87;;
25950;SDS011;13748;52.240;6.002;2023-02-28T04:05:10;9.83;;;5.50;;
25950;SDS011;13748;52.240;6.002;2023-02-28T04:07:38;10.97;;;5.87;;
25950;SDS011;13748;52.240;6.002;2023-02-28T04:10:05;9.37;;;5.23;;
25950;SDS011;13748;52.240;6.002;2023-02-28T04:12:33;11.27;;;5.83;;
25950;SDS011;13748;52.240;6.002;2023-02-28T04:14:59;10.37;;;5.93;;
25950;SDS011;13748;52.240;6.002;2023-02-28T04:17:26;8.30;;;5.93;;
25950;SDS011;13748;52.240;6.002;2023-02-28T04:19:53;6.00;;;5.10;;
25950;SDS011;13748;52.240;6.002;2023-02-28T04:22:22;6.10;;;5.20;;
25950;SDS011;13748;52.240;6.002;2023-02-28T04:24:52;10.67;;;5.90;;
25950;SDS011;13748;52.240;6.002;2023-02-28T04:27:20;9.07;;;5.90;;
25950;SDS011;13748;52.240;6.002;2023-02-28T04:29:47;8.50;;;5.77;;
25950;SDS011;13748;52.240;6.002;2023-02-28T04:32:14;8.50;;;5.50;;
25950;SDS011;13748;52.240;6.002;2023-02-28T04:34:41;6.40;;;5.40;;
25950;SDS011;13748;52.240;6.002;2023-02-28T04:37:07;7.90;;;5.07;;
25950;SDS011;13748;52.240;6.002;2023-02-28T04:39:39;7.37;;;5.00;;
25950;SDS011;13748;52.240;6.002;2023-02-28T04:42:06;6.33;;;4.90;;
25950;SDS011;13748;52.240;6.002;2023-02-28T04:44:33;6.13;;;4.70;;
25950;SDS011;13748;52.240;6.002;2023-02-28T04:47:00;6.27;;;4.50;;
25950;SDS011;13748;52.240;6.002;2023-02-28T04:49:27;8.73;;;4.97;;
25950;SDS011;13748;52.240;6.002;2023-02-28T04:51:53;8.93;;;5.30;;
25950;SDS011;13748;52.240;6.002;2023-02-28T04:54:20;5.97;;;4.60;;
25950;SDS011;13748;52.240;6.002;2023-02-28T04:56:47;8.50;;;5.10;;
25950;SDS011;13748;52.240;6.002;2023-02-28T04:59:16;7.57;;;4.40;;
25950;SDS011;13748;52.240;6.002;2023-02-28T05:01:45;9.10;;;4.97;;
25950;SDS011;13748;52.240;6.002;2023-02-28T05:04:13;4.77;;;3.73;;
25950;SDS011;13748;52.240;6.002;2023-02-28T05:06:40;4.93;;;4.30;;
25950;SDS011;13748;52.240;6.002;2023-02-28T05:09:07;6.83;;;4.10;;
25950;SDS011;13748;52.240;6.002;2023-02-28T05:11:34;6.53;;;4.60;;
25950;SDS011;13748;52.240;6.002;2023-02-28T05:14:05;6.47;;;4.33;;
25950;SDS011;13748;52.240;6.002;2023-02-28T05:16:35;4.43;;;4.00;;
25950;SDS011;13748;52.240;6.002;2023-02-28T05:19:02;5.00;;;4.30;;
25950;SDS011;13748;52.240;6.002;2023-02-28T05:21:30;4.37;;;3.97;;
25950;SDS011;13748;52.240;6.002;2023-02-28T05:23:59;4.63;;;3.70;;
25950;SDS011;13748;52.240;6.002;2023-02-28T05:26:28;5.50;;;4.47;;
25950;SDS011;13748;52.240;6.002;2023-02-28T05:28:55;7.03;;;4.63;;
25950;SDS011;13748;52.240;6.002;2023-02-28T05:31:22;5.40;;;4.37;;
25950;SDS011;13748;52.240;6.002;2023-02-28T05:33:49;9.17;;;4.20;;
25950;SDS011;13748;52.240;6.002;2023-02-28T05:36:16;8.73;;;4.80;;
25950;SDS011;13748;52.240;6.002;2023-02-28T05:38:45;6.23;;;4.80;;
25950;SDS011;13748;52.240;6.002;2023-02-28T05:41:13;6.77;;;4.83;;
25950;SDS011;13748;52.240;6.002;2023-02-28T05:43:41;7.77;;;4.40;;
25950;SDS011;13748;52.240;6.002;2023-02-28T05:46:08;5.90;;;4.53;;
25950;SDS011;13748;52.240;6.002;2023-02-28T05:48:37;6.33;;;4.30;;
25950;SDS011;13748;52.240;6.002;2023-02-28T05:51:06;7.43;;;4.57;;
25950;SDS011;13748;52.240;6.002;2023-02-28T05:53:34;7.20;;;4.60;;
25950;SDS011;13748;52.240;6.002;2023-02-28T05:56:01;8.13;;;4.53;;
25950;SDS011;13748;52.240;6.002;2023-02-28T05:58:28;7.10;;;4.60;;
25950;SDS011;13748;52.240;6.002;2023-02-28T06:00:58;6.80;;;4.73;;
25950;SDS011;13748;52.240;6.002;2023-02-28T06:03:25;9.40;;;4.70;;
25950;SDS011;13748;52.240;6.002;2023-02-28T06:05:52;7.70;;;4.50;;
25950;SDS011;13748;52.240;6.002;2023-02-28T06:08:19;8.23;;;5.33;;
25950;SDS011;13748;52.240;6.002;2023-02-28T06:10:46;6.47;;;4.90;;
25950;SDS011;13748;52.240;6.002;2023-02-28T06:13:13;7.23;;;5.30;;
25950;SDS011;13748;52.240;6.002;2023-02-28T06:15:40;6.27;;;4.70;;
25950;SDS011;13748;52.240;6.002;2023-02-28T06:18:07;6.17;;;4.70;;
25950;SDS011;13748;52.240;6.002;2023-02-28T06:20:34;6.27;;;4.67;;
25950;SDS011;13748;52.240;6.002;2023-02-28T06:23:02;7.27;;;4.47;;
25950;SDS011;13748;52.240;6.002;2023-02-28T06:25:29;6.80;;;4.33;;
25950;SDS011;13748;52.240;6.002;2023-02-28T06:27:56;7.00;;;4.47;;
25950;SDS011;13748;52.240;6.002;2023-02-28T06:30:23;7.47;;;4.70;;
25950;SDS011;13748;52.240;6.002;2023-02-28T06:32:53;6.93;;;4.50;;
25950;SDS011;13748;52.240;6.002;2023-02-28T06:35:20;7.10;;;4.73;;
25950;SDS011;13748;52.240;6.002;2023-02-28T06:37:48;6.20;;;4.67;;
25950;SDS011;13748;52.240;6.002;2023-02-28T06:40:14;4.67;;;3.93;;
25950;SDS011;13748;52.240;6.002;2023-02-28T06:42:41;6.00;;;4.67;;
25950;SDS011;13748;52.240;6.002;2023-02-28T06:45:09;6.80;;;4.60;;
25950;SDS011;13748;52.240;6.002;2023-02-28T06:47:37;8.27;;;5.70;;
25950;SDS011;13748;52.240;6.002;2023-02-28T06:50:06;7.93;;;4.93;;
25950;SDS011;13748;52.240;6.002;2023-02-28T06:52:35;5.83;;;4.30;;
25950;SDS011;13748;52.240;6.002;2023-02-28T06:55:05;7.27;;;4.73;;
25950;SDS011;13748;52.240;6.002;2023-02-28T06:57:34;6.67;;;4.73;;
25950;SDS011;13748;52.240;6.002;2023-02-28T07:00:04;6.23;;;4.00;;
25950;SDS011;13748;52.240;6.002;2023-02-28T07:02:35;6.67;;;4.30;;
25950;SDS011;13748;52.240;6.002;2023-02-28T07:05:02;5.40;;;4.47;;
25950;SDS011;13748;52.240;6.002;2023-02-28T07:07:30;5.80;;;4.03;;
25950;SDS011;13748;52.240;6.002;2023-02-28T07:09:58;9.63;;;4.40;;
25950;SDS011;13748;52.240;6.002;2023-02-28T07:12:25;9.03;;;4.23;;
25950;SDS011;13748;52.240;6.002;2023-02-28T07:14:51;6.47;;;5.63;;
25950;SDS011;13748;52.240;6.002;2023-02-28T07:17:18;7.63;;;5.00;;
25950;SDS011;13748;52.240;6.002;2023-02-28T07:19:45;6.00;;;4.47;;
25950;SDS011;13748;52.240;6.002;2023-02-28T07:22:11;6.20;;;4.83;;
25950;SDS011;13748;52.240;6.002;2023-02-28T07:24:41;7.33;;;4.43;;
25950;SDS011;13748;52.240;6.002;2023-02-28T07:27:07;7.57;;;4.90;;
25950;SDS011;13748;52.240;6.002;2023-02-28T07:29:34;6.37;;;4.80;;
25950;SDS011;13748;52.240;6.002;2023-02-28T07:32:01;6.93;;;4.80;;
25950;SDS011;13748;52.240;6.002;2023-02-28T07:34:28;8.77;;;4.50;;
25950;SDS011;13748;52.240;6.002;2023-02-28T07:36:55;10.07;;;5.13;;
25950;SDS011;13748;52.240;6.002;2023-02-28T07:39:22;8.77;;;4.73;;
25950;SDS011;13748;52.240;6.002;2023-02-28T07:41:49;7.57;;;4.80;;
25950;SDS011;13748;52.240;6.002;2023-02-28T07:44:15;8.73;;;4.60;;
25950;SDS011;13748;52.240;6.002;2023-02-28T07:46:42;6.83;;;4.97;;
25950;SDS011;13748;52.240;6.002;2023-02-28T07:49:09;6.53;;;4.67;;
25950;SDS011;13748;52.240;6.002;2023-02-28T07:51:36;6.93;;;4.97;;
25950;SDS011;13748;52.240;6.002;2023-02-28T07:54:03;8.57;;;5.20;;
25950;SDS011;13748;52.240;6.002;2023-02-28T07:56:30;6.97;;;4.73;;
25950;SDS011;13748;52.240;6.002;2023-02-28T07:58:57;9.73;;;5.17;;
25950;SDS011;13748;52.240;6.002;2023-02-28T08:01:24;8.67;;;5.27;;
25950;SDS011;13748;52.240;6.002;2023-02-28T08:03:51;8.30;;;5.30;;
25950;SDS011;13748;52.240;6.002;2023-02-28T08:06:19;10.47;;;5.83;;
25950;SDS011;13748;52.240;6.002;2023-02-28T08:08:48;7.43;;;5.80;;
25950;SDS011;13748;52.240;6.002;2023-02-28T08:11:16;7.03;;;5.20;;
25950;SDS011;13748;52.240;6.002;2023-02-28T08:13:43;8.43;;;5.50;;
25950;SDS011;13748;52.240;6.002;2023-02-28T08:16:11;10.93;;;5.50;;
25950;SDS011;13748;52.240;6.002;2023-02-28T08:18:44;11.93;;;4.73;;
25950;SDS011;13748;52.240;6.002;2023-02-28T08:21:10;5.03;;;3.57;;
25950;SDS011;13748;52.240;6.002;2023-02-28T08:23:37;7.70;;;4.13;;
25950;SDS011;13748;52.240;6.002;2023-02-28T08:26:05;4.63;;;3.70;;
25950;SDS011;13748;52.240;6.002;2023-02-28T08:28:32;5.40;;;3.57;;
25950;SDS011;13748;52.240;6.002;2023-02-28T08:30:58;5.13;;;3.53;;
25950;SDS011;13748;52.240;6.002;2023-02-28T08:33:26;5.93;;;3.60;;
25950;SDS011;13748;52.240;6.002;2023-02-28T08:35:54;5.77;;;3.37;;
25950;SDS011;13748;52.240;6.002;2023-02-28T08:38:22;4.13;;;3.33;;
25950;SDS011;13748;52.240;6.002;2023-02-28T08:40:50;3.83;;;3.13;;
25950;SDS011;13748;52.240;6.002;2023-02-28T08:43:23;4.33;;;2.93;;
25950;SDS011;13748;52.240;6.002;2023-02-28T08:45:53;6.00;;;3.20;;
25950;SDS011;13748;52.240;6.002;2023-02-28T08:48:23;4.47;;;3.10;;
25950;SDS011;13748;52.240;6.002;2023-02-28T08:53:34;2.90;;;2.30;;
25950;SDS011;13748;52.240;6.002;2023-02-28T08:56:06;3.27;;;2.23;;
25950;SDS011;13748;52.240;6.002;2023-02-28T08:58:39;4.07;;;2.67;;
25950;SDS011;13748;52.240;6.002;2023-02-28T09:01:07;2.83;;;2.27;;
25950;SDS011;13748;52.240;6.002;2023-02-28T09:03:42;2.60;;;2.40;;
25950;SDS011;13748;52.240;6.002;2023-02-28T09:06:09;3.77;;;2.60;;
25950;SDS011;13748;52.240;6.002;2023-02-28T09:08:37;3.17;;;2.87;;
25950;SDS011;13748;52.240;6.002;2023-02-28T09:11:04;4.60;;;3.00;;
25950;SDS011;13748;52.240;6.002;2023-02-28T09:13:31;4.83;;;2.80;;
25950;SDS011;13748;52.240;6.002;2023-02-28T09:15:59;3.40;;;2.87;;
25950;SDS011;13748;52.240;6.002;2023-02-28T09:18:28;2.77;;;2.57;;
25950;SDS011;13748;52.240;6.002;2023-02-28T09:20:55;3.60;;;2.87;;
25950;SDS011;13748;52.240;6.002;2023-02-28T09:23:24;3.63;;;2.53;;
25950;SDS011;13748;52.240;6.002;2023-02-28T09:25:51;4.77;;;2.40;;
25950;SDS011;13748;52.240;6.002;2023-02-28T09:28:20;3.80;;;2.50;;
25950;SDS011;13748;52.240;6.002;2023-02-28T09:30:48;3.30;;;2.30;;
25950;SDS011;13748;52.240;6.002;2023-02-28T09:33:17;2.90;;;2.07;;
25950;SDS011;13748;52.240;6.002;2023-02-28T09:35:49;3.47;;;2.57;;
25950;SDS011;13748;52.240;6.002;2023-02-28T09:38:17;2.60;;;2.30;;
25950;SDS011;13748;52.240;6.002;2023-02-28T09:40:51;5.03;;;2.27;;
25950;SDS011;13748;52.240;6.002;2023-02-28T09:43:25;3.03;;;2.27;;
25950;SDS011;13748;52.240;6.002;2023-02-28T09:46:20;3.07;;;2.50;;
25950;SDS011;13748;52.240;6.002;2023-02-28T09:48:51;2.53;;;2.33;;
25950;SDS011;13748;52.240;6.002;2023-02-28T09:51:26;3.60;;;2.40;;
25950;SDS011;13748;52.240;6.002;2023-02-28T09:53:59;3.20;;;2.40;;
25950;SDS011;13748;52.240;6.002;2023-02-28T09:56:29;4.23;;;2.50;;
25950;SDS011;13748;52.240;6.002;2023-02-28T09:59:10;2.50;;;2.03;;
25950;SDS011;13748;52.240;6.002;2023-02-28T10:10:26;3.47;;;2.30;;
25950;SDS011;13748;52.240;6.002;2023-02-28T10:12:59;3.63;;;2.30;;
25950;SDS011;13748;52.240;6.002;2023-02-28T10:15:29;2.23;;;1.97;;
25950;SDS011;13748;52.240;6.002;2023-02-28T10:17:59;2.97;;;2.20;;
25950;SDS011;13748;52.240;6.002;2023-02-28T10:20:35;4.50;;;2.27;;
25950;SDS011;13748;52.240;6.002;2023-02-28T10:23:17;2.73;;;2.33;;
25950;SDS011;13748;52.240;6.002;2023-02-28T10:25:55;4.20;;;2.27;;
25950;SDS011;13748;52.240;6.002;2023-02-28T10:28:26;7.83;;;2.60;;
25950;SDS011;13748;52.240;6.002;2023-02-28T10:30:54;2.60;;;2.33;;
25950;SDS011;13748;52.240;6.002;2023-02-28T10:33:29;3.17;;;2.00;;
25950;SDS011;13748;52.240;6.002;2023-02-28T10:35:58;3.40;;;2.17;;
25950;SDS011;13748;52.240;6.002;2023-02-28T10:38:26;2.83;;;2.00;;
25950;SDS011;13748;52.240;6.002;2023-02-28T10:41:03;3.27;;;2.67;;
25950;SDS011;13748;52.240;6.002;2023-02-28T10:43:35;2.67;;;2.47;;
25950;SDS011;13748;52.240;6.002;2023-02-28T10:48:45;4.13;;;2.30;;
25950;SDS011;13748;52.240;6.002;2023-02-28T10:51:23;3.63;;;2.40;;
25950;SDS011;13748;52.240;6.002;2023-02-28T10:53:54;3.17;;;2.30;;
25950;SDS011;13748;52.240;6.002;2023-02-28T10:56:28;2.57;;;2.20;;
25950;SDS011;13748;52.240;6.002;2023-02-28T10:59:01;3.07;;;2.30;;
25950;SDS011;13748;52.240;6.002;2023-02-28T11:01:44;3.13;;;2.13;;
25950;SDS011;13748;52.240;6.002;2023-02-28T11:04:20;4.27;;;2.43;;
25950;SDS011;13748;52.240;6.002;2023-02-28T11:06:57;3.43;;;2.37;;
25950;SDS011;13748;52.240;6.002;2023-02-28T11:11:58;2.40;;;2.20;;
25950;SDS011;13748;52.240;6.002;2023-02-28T11:14:27;2.53;;;2.20;;
25950;SDS011;13748;52.240;6.002;2023-02-28T11:16:57;3.60;;;2.20;;
25950;SDS011;13748;52.240;6.002;2023-02-28T11:19:34;3.70;;;2.60;;
25950;SDS011;13748;52.240;6.002;2023-02-28T11:22:10;2.47;;;2.20;;
25950;SDS011;13748;52.240;6.002;2023-02-28T11:24:44;2.73;;;2.17;;
25950;SDS011;13748;52.240;6.002;2023-02-28T11:27:40;2.90;;;2.60;;
25950;SDS011;13748;52.240;6.002;2023-02-28T11:30:22;4.10;;;2.10;;
25950;SDS011;13748;52.240;6.002;2023-02-28T11:32:54;4.33;;;2.53;;
25950;SDS011;13748;52.240;6.002;2023-02-28T11:35:23;2.80;;;2.50;;
25950;SDS011;13748;52.240;6.002;2023-02-28T11:37:53;3.90;;;2.40;;
25950;SDS011;13748;52.240;6.002;2023-02-28T11:40:26;2.97;;;2.57;;
25950;SDS011;13748;52.240;6.002;2023-02-28T11:48:20;2.70;;;2.50;;
25950;SDS011;13748;52.240;6.002;2023-02-28T11:50:52;3.47;;;2.37;;
25950;SDS011;13748;52.240;6.002;2023-02-28T11:56:47;3.17;;;2.70;;
25950;SDS011;13748;52.240;6.002;2023-02-28T11:59:31;2.93;;;2.40;;
25950;SDS011;13748;52.240;6.002;2023-02-28T12:05:08;2.90;;;2.60;;
25950;SDS011;13748;52.240;6.002;2023-02-28T12:07:51;5.20;;;2.93;;
25950;SDS011;13748;52.240;6.002;2023-02-28T12:10:26;5.20;;;2.60;;
25950;SDS011;13748;52.240;6.002;2023-02-28T12:13:16;4.70;;;2.50;;
25950;SDS011;13748;52.240;6.002;2023-02-28T12:24:24;4.23;;;2.40;;
25950;SDS011;13748;52.240;6.002;2023-02-28T12:27:17;2.73;;;2.30;;
25950;SDS011;13748;52.240;6.002;2023-02-28T12:29:56;2.47;;;2.27;;
25950;SDS011;13748;52.240;6.002;2023-02-28T12:38:13;2.97;;;2.50;;
25950;SDS011;13748;52.240;6.002;2023-02-28T12:43:33;4.13;;;2.50;;
25950;SDS011;13748;52.240;6.002;2023-02-28T12:46:10;2.70;;;2.40;;
25950;SDS011;13748;52.240;6.002;2023-02-28T12:48:43;3.43;;;3.10;;
25950;SDS011;13748;52.240;6.002;2023-02-28T12:51:12;4.20;;;2.90;;
25950;SDS011;13748;52.240;6.002;2023-02-28T12:53:46;3.43;;;2.60;;
25950;SDS011;13748;52.240;6.002;2023-02-28T13:10:44;3.27;;;2.73;;
25950;SDS011;13748;52.240;6.002;2023-02-28T13:13:17;4.13;;;2.40;;
25950;SDS011;13748;52.240;6.002;2023-02-28T13:15:59;2.93;;;2.73;;
25950;SDS011;13748;52.240;6.002;2023-02-28T13:21:02;3.80;;;2.40;;
25950;SDS011;13748;52.240;6.002;2023-02-28T13:26:13;2.90;;;2.70;;
25950;SDS011;13748;52.240;6.002;2023-02-28T13:31:19;4.13;;;2.50;;
25950;SDS011;13748;52.240;6.002;2023-02-28T13:38:47;3.00;;;2.40;;
25950;SDS011;13748;52.240;6.002;2023-02-28T13:46:29;3.20;;;2.63;;
25950;SDS011;13748;52.240;6.002;2023-02-28T13:49:17;4.23;;;2.50;;
25950;SDS011;13748;52.240;6.002;2023-02-28T13:51:47;2.93;;;2.60;;
25950;SDS011;13748;52.240;6.002;2023-02-28T14:05:15;2.90;;;2.00;;
25950;SDS011;13748;52.240;6.002;2023-02-28T14:07:49;2.50;;;2.00;;
25950;SDS011;13748;52.240;6.002;2023-02-28T14:10:26;3.00;;;1.87;;
25950;SDS011;13748;52.240;6.002;2023-02-28T14:12:58;2.03;;;1.93;;
25950;SDS011;13748;52.240;6.002;2023-02-28T14:21:03;3.10;;;2.40;;
25950;SDS011;13748;52.240;6.002;2023-02-28T14:33:03;2.70;;;2.00;;
25950;SDS011;13748;52.240;6.002;2023-02-28T14:35:39;2.10;;;1.90;;
25950;SDS011;13748;52.240;6.002;2023-02-28T14:38:24;2.07;;;1.87;;
25950;SDS011;13748;52.240;6.002;2023-02-28T14:40:54;2.77;;;2.17;;
25950;SDS011;13748;52.240;6.002;2023-02-28T14:43:27;4.20;;;2.33;;
25950;SDS011;13748;52.240;6.002;2023-02-28T14:45:55;6.17;;;2.40;;
25950;SDS011;13748;52.240;6.002;2023-02-28T14:48:24;4.87;;;2.00;;
25950;SDS011;13748;52.240;6.002;2023-02-28T14:50:53;2.83;;;2.13;;
25950;SDS011;13748;52.240;6.002;2023-02-28T14:53:27;2.67;;;2.27;;
25950;SDS011;13748;52.240;6.002;2023-02-28T14:55:56;2.60;;;2.30;;
25950;SDS011;13748;52.240;6.002;2023-02-28T14:58:27;4.03;;;2.20;;
25950;SDS011;13748;52.240;6.002;2023-02-28T15:00:57;2.43;;;2.20;;
25950;SDS011;13748;52.240;6.002;2023-02-28T15:03:32;2.80;;;2.23;;
25950;SDS011;13748;52.240;6.002;2023-02-28T15:06:04;3.07;;;2.70;;
25950;SDS011;13748;52.240;6.002;2023-02-28T15:08:44;2.87;;;2.30;;
25950;SDS011;13748;52.240;6.002;2023-02-28T15:13:46;4.77;;;2.17;;
25950;SDS011;13748;52.240;6.002;2023-02-28T15:16:18;2.43;;;2.20;;
25950;SDS011;13748;52.240;6.002;2023-02-28T15:18:55;3.63;;;2.47;;
25950;SDS011;13748;52.240;6.002;2023-02-28T15:21:35;2.70;;;2.40;;
25950;SDS011;13748;52.240;6.002;2023-02-28T15:24:24;3.60;;;2.67;;
25950;SDS011;13748;52.240;6.002;2023-02-28T15:27:03;2.40;;;2.20;;
25950;SDS011;13748;52.240;6.002;2023-02-28T15:29:34;2.60;;;2.37;;
25950;SDS011;13748;52.240;6.002;2023-02-28T15:32:16;2.43;;;2.23;;
25950;SDS011;13748;52.240;6.002;2023-02-28T15:35:25;3.80;;;2.50;;
25950;SDS011;13748;52.240;6.002;2023-02-28T15:38:01;3.80;;;2.13;;
25950;SDS011;13748;52.240;6.002;2023-02-28T15:40:35;3.43;;;2.20;;
25950;SDS011;13748;52.240;6.002;2023-02-28T15:45:44;3.67;;;2.37;;
25950;SDS011;13748;52.240;6.002;2023-02-28T15:50:48;4.70;;;2.90;;
25950;SDS011;13748;52.240;6.002;2023-02-28T15:56:20;3.30;;;2.37;;
25950;SDS011;13748;52.240;6.002;2023-02-28T15:59:02;3.00;;;2.30;;
25950;SDS011;13748;52.240;6.002;2023-02-28T16:01:32;3.13;;;2.63;;
25950;SDS011;13748;52.240;6.002;2023-02-28T16:04:01;4.20;;;2.80;;
25950;SDS011;13748;52.240;6.002;2023-02-28T16:06:38;3.13;;;2.60;;
25950;SDS011;13748;52.240;6.002;2023-02-28T16:09:09;3.60;;;2.80;;
25950;SDS011;13748;52.240;6.002;2023-02-28T16:11:39;3.20;;;2.63;;
25950;SDS011;13748;52.240;6.002;2023-02-28T16:14:12;4.77;;;3.10;;
25950;SDS011;13748;52.240;6.002;2023-02-28T16:17:05;2.87;;;2.60;;
25950;SDS011;13748;52.240;6.002;2023-02-28T16:19:36;3.33;;;2.77;;
25950;SDS011;13748;52.240;6.002;2023-02-28T16:22:03;3.57;;;2.87;;
25950;SDS011;13748;52.240;6.002;2023-02-28T16:24:30;6.70;;;3.60;;
25950;SDS011;13748;52.240;6.002;2023-02-28T16:26:56;3.63;;;3.10;;
25950;SDS011;13748;52.240;6.002;2023-02-28T16:29:28;4.30;;;3.40;;
25950;SDS011;13748;52.240;6.002;2023-02-28T16:31:58;3.97;;;3.23;;
25950;SDS011;13748;52.240;6.002;2023-02-28T16:34:25;4.87;;;3.00;;
25950;SDS011;13748;52.240;6.002;2023-02-28T16:36:53;4.00;;;3.27;;
25950;SDS011;13748;52.240;6.002;2023-02-28T16:39:19;3.20;;;2.70;;
25950;SDS011;13748;52.240;6.002;2023-02-28T16:41:47;5.67;;;3.60;;
25950;SDS011;13748;52.240;6.002;2023-02-28T16:44:26;5.13;;;3.20;;
25950;SDS011;13748;52.240;6.002;2023-02-28T16:46:54;5.77;;;3.27;;
25950;SDS011;13748;52.240;6.002;2023-02-28T16:49:21;4.73;;;3.20;;
25950;SDS011;13748;52.240;6.002;2023-02-28T16:51:48;3.70;;;3.40;;
25950;SDS011;13748;52.240;6.002;2023-02-28T16:54:15;3.77;;;3.10;;
25950;SDS011;13748;52.240;6.002;2023-02-28T16:56:43;3.87;;;2.83;;
25950;SDS011;13748;52.240;6.002;2023-02-28T16:59:13;5.20;;;3.63;;
25950;SDS011;13748;52.240;6.002;2023-02-28T17:01:44;4.70;;;3.03;;
25950;SDS011;13748;52.240;6.002;2023-02-28T17:04:11;5.77;;;3.77;;
25950;SDS011;13748;52.240;6.002;2023-02-28T17:06:39;4.20;;;3.00;;
25950;SDS011;13748;52.240;6.002;2023-02-28T17:09:07;5.10;;;3.07;;
25950;SDS011;13748;52.240;6.002;2023-02-28T17:11:42;5.53;;;3.43;;
25950;SDS011;13748;52.240;6.002;2023-02-28T17:14:10;5.57;;;3.40;;
25950;SDS011;13748;52.240;6.002;2023-02-28T17:16:37;6.63;;;4.13;;
25950;SDS011;13748;52.240;6.002;2023-02-28T17:19:12;4.47;;;3.37;;
25950;SDS011;13748;52.240;6.002;2023-02-28T17:21:40;4.93;;;3.40;;
25950;SDS011;13748;52.240;6.002;2023-02-28T17:24:08;5.17;;;3.80;;
25950;SDS011;13748;52.240;6.002;2023-02-28T17:26:44;7.27;;;3.70;;
25950;SDS011;13748;52.240;6.002;2023-02-28T17:29:13;4.63;;;3.13;;
25950;SDS011;13748;52.240;6.002;2023-02-28T17:31:42;463.37;;;42.47;;
25950;SDS011;13748;52.240;6.002;2023-02-28T17:34:09;771.30;;;78.90;;
25950;SDS011;13748;52.240;6.002;2023-02-28T17:36:36;520.70;;;43.47;;
25950;SDS011;13748;52.240;6.002;2023-02-28T17:39:04;93.73;;;10.13;;
25950;SDS011;13748;52.240;6.002;2023-02-28T17:41:37;466.73;;;37.93;;
25950;SDS011;13748;52.240;6.002;2023-02-28T17:44:03;125.13;;;11.37;;